createdAt,value
2018-05-11T00:02:14.132Z,25.57
2018-05-11T00:04:43.708Z,27.40
2018-05-11T00:07:16.403Z,27.07
2018-05-11T00:09:47.118Z,27.50
2018-05-11T00:12:15.151Z,26.37
2018-05-11T00:14:43.190Z,24.83
2018-05-11T00:17:12.143Z,25.80
2018-05-11T00:19:43.075Z,26.40
2018-05-11T00:22:11.114Z,27.17
2018-05-11T00:24:40.551Z,27.70
2018-05-11T00:27:13.095Z,28.47
2018-05-11T00:29:42.143Z,26.90
2018-05-11T00:32:10.167Z,26.67
2018-05-11T00:34:41.231Z,28.97
2018-05-11T00:37:11.187Z,26.60
2018-05-11T00:39:39.227Z,27.40
2018-05-11T00:42:08.179Z,27.80
2018-05-11T00:44:39.866Z,28.33
2018-05-11T00:47:07.910Z,27.37
2018-05-11T00:49:36.819Z,27.30
2018-05-11T00:52:09.711Z,30.10
2018-05-11T00:54:38.702Z,27.97
2018-05-11T00:57:06.740Z,29.30
2018-05-11T00:59:35.771Z,29.30
2018-05-11T01:02:03.807Z,26.93
2018-05-11T01:04:36.003Z,28.70
2018-05-11T01:07:04.931Z,30.70
2018-05-11T01:09:33.859Z,29.70
2018-05-11T01:12:07.195Z,30.57
2018-05-11T01:14:37.187Z,29.90
2018-05-11T01:17:08.354Z,31.37
2018-05-11T01:19:37.191Z,31.80
2018-05-11T01:22:06.115Z,31.50
2018-05-11T01:24:35.129Z,32.87
2018-05-11T01:27:04.543Z,31.40
2018-05-11T01:29:32.591Z,31.60
2018-05-11T01:32:05.819Z,32.67
2018-05-11T01:34:45.140Z,33.03
2018-05-11T01:37:15.128Z,32.17
2018-05-11T01:39:48.926Z,33.40
2018-05-11T01:42:17.231Z,32.80
2018-05-11T01:44:45.265Z,33.87
2018-05-11T01:47:17.061Z,33.10
2018-05-11T01:49:46.043Z,31.70
2018-05-11T01:52:19.444Z,34.90
2018-05-11T01:55:01.408Z,30.20
2018-05-11T01:57:30.422Z,33.87
2018-05-11T01:59:58.443Z,32.60
2018-05-11T02:02:32.195Z,31.13
2018-05-11T02:05:01.159Z,33.93
2018-05-11T02:07:39.187Z,33.83
2018-05-11T02:10:09.243Z,32.77
2018-05-11T02:12:37.268Z,32.70
2018-05-11T02:15:06.279Z,35.80
2018-05-11T02:17:35.235Z,35.17
2018-05-11T02:20:08.951Z,35.07
2018-05-11T02:22:38.911Z,32.50
2018-05-11T02:25:06.953Z,35.97
2018-05-11T02:27:36.787Z,35.20
2018-05-11T02:30:05.887Z,36.13
2018-05-11T02:32:35.855Z,36.17
2018-05-11T02:35:04.808Z,34.87
2018-05-11T02:37:32.819Z,35.77
2018-05-11T02:40:00.863Z,36.20
2018-05-11T02:42:28.899Z,34.77
2018-05-11T02:44:57.878Z,36.73
2018-05-11T02:47:28.831Z,37.50
2018-05-11T02:49:57.798Z,36.73
2018-05-11T02:52:30.190Z,37.07
2018-05-11T02:55:00.127Z,37.23
2018-05-11T02:57:29.166Z,39.13
2018-05-11T03:00:01.283Z,39.00
2018-05-11T03:02:29.298Z,40.57
2018-05-11T03:04:58.323Z,38.53
2018-05-11T03:07:27.289Z,42.70
2018-05-11T03:09:57.614Z,40.07
2018-05-11T03:12:25.663Z,42.13
2018-05-11T03:14:53.682Z,40.40
2018-05-11T03:17:21.741Z,40.17
2018-05-11T03:19:49.804Z,40.63
2018-05-11T03:22:19.678Z,44.40
2018-05-11T03:24:47.714Z,40.97
2018-05-11T03:27:15.858Z,41.07
2018-05-11T03:29:44.666Z,44.60
2018-05-11T03:32:14.576Z,42.80
2018-05-11T03:34:45.790Z,42.23
2018-05-11T03:37:16.088Z,44.50
2018-05-11T03:39:45.067Z,43.50
2018-05-11T03:42:15.930Z,44.17
2018-05-11T03:44:44.950Z,44.37
2018-05-11T03:47:13.010Z,44.20
2018-05-11T03:49:43.035Z,43.43
2018-05-11T03:52:12.006Z,42.13
2018-05-11T03:54:41.003Z,43.47
2018-05-11T03:57:16.343Z,42.13
2018-05-11T03:59:49.454Z,42.50
2018-05-11T04:02:33.778Z,42.73
2018-05-11T04:05:14.694Z,40.50
2018-05-11T04:07:55.546Z,41.80
2018-05-11T04:10:25.542Z,41.27
2018-05-11T04:12:55.550Z,41.40
2018-05-11T04:15:24.475Z,42.90
2018-05-11T04:17:53.474Z,42.07
2018-05-11T04:20:23.486Z,40.00
2018-05-11T04:22:52.471Z,41.23
2018-05-11T04:25:27.405Z,42.63
2018-05-11T04:27:56.366Z,43.03
2018-05-11T04:30:24.618Z,40.57
2018-05-11T04:32:52.998Z,41.63
2018-05-11T04:35:22.006Z,40.63
2018-05-11T04:37:56.314Z,41.37
2018-05-11T04:40:27.474Z,42.43
2018-05-11T04:42:55.538Z,40.97
2018-05-11T04:45:23.629Z,42.27
2018-05-11T04:47:52.490Z,37.93
2018-05-11T04:50:23.474Z,40.20
2018-05-11T04:52:52.734Z,42.20
2018-05-11T04:55:24.386Z,40.27
2018-05-11T04:57:52.422Z,37.17
2018-05-11T05:00:22.393Z,41.00
2018-05-11T05:02:51.402Z,38.90
2018-05-11T05:05:19.666Z,41.13
2018-05-11T05:07:48.526Z,41.27
2018-05-11T05:10:18.497Z,39.53
2018-05-11T05:12:46.518Z,39.80
2018-05-11T05:15:14.564Z,41.73
2018-05-11T05:17:43.583Z,41.37
2018-05-11T05:20:11.642Z,40.27
2018-05-11T05:22:39.690Z,38.40
2018-05-11T05:25:07.714Z,38.37
2018-05-11T05:27:36.693Z,40.20
2018-05-11T05:33:44.209Z,40.90
2018-05-11T05:36:16.078Z,38.20
2018-05-11T05:38:48.641Z,40.27
2018-05-11T05:41:20.389Z,38.30
2018-05-11T05:43:52.234Z,38.80
2018-05-11T05:46:25.341Z,38.77
2018-05-11T05:48:53.973Z,39.03
2018-05-11T05:51:25.402Z,40.70
2018-05-11T05:53:54.205Z,40.73
2018-05-11T05:56:22.230Z,38.90
2018-05-11T05:58:51.230Z,36.43
2018-05-11T06:01:19.262Z,37.40
2018-05-11T06:03:47.394Z,36.10
2018-05-11T06:06:17.379Z,37.90
2018-05-11T06:08:47.402Z,38.47
2018-05-11T06:11:15.440Z,35.50
2018-05-11T06:13:45.538Z,34.20
2018-05-11T06:16:15.506Z,35.50
2018-05-11T06:18:43.546Z,35.80
2018-05-11T06:21:11.570Z,33.63
2018-05-11T06:23:40.365Z,36.33
2018-05-11T06:26:08.477Z,36.40
2018-05-11T06:28:37.505Z,35.20
2018-05-11T06:31:05.525Z,37.20
2018-05-11T06:33:33.557Z,33.90
2018-05-11T06:36:02.977Z,36.00
2018-05-11T06:38:31.749Z,37.10
2018-05-11T06:40:59.766Z,36.23
2018-05-11T06:43:27.789Z,38.03
2018-05-11T06:45:56.646Z,37.97
2018-05-11T06:48:25.537Z,37.80
2018-05-11T06:50:56.943Z,38.10
2018-05-11T06:53:27.710Z,36.37
2018-05-11T06:55:56.829Z,37.37
2018-05-11T06:58:30.515Z,40.50
2018-05-11T07:00:58.557Z,36.60
2018-05-11T07:03:27.581Z,38.90
2018-05-11T07:06:00.988Z,37.27
2018-05-11T07:08:34.172Z,39.20
2018-05-11T07:11:08.084Z,41.63
2018-05-11T07:13:41.772Z,43.30
2018-05-11T07:16:10.768Z,43.77
2018-05-11T07:18:39.768Z,42.20
2018-05-11T07:21:12.960Z,43.50
2018-05-11T07:23:40.996Z,46.27
2018-05-11T07:26:09.019Z,41.70
2018-05-11T07:28:41.896Z,41.93
2018-05-11T07:31:13.020Z,41.37
2018-05-11T07:33:41.052Z,42.77
2018-05-11T07:36:10.092Z,42.50
2018-05-11T07:38:39.111Z,39.50
2018-05-11T07:41:08.088Z,43.27
2018-05-11T07:43:36.764Z,43.00
2018-05-11T07:46:04.884Z,40.10
2018-05-11T07:48:42.996Z,42.80
2018-05-11T07:51:12.044Z,45.00
2018-05-11T07:53:43.328Z,43.70
2018-05-11T07:56:13.371Z,44.37
2018-05-11T07:58:44.112Z,47.03
2018-05-11T08:01:16.258Z,44.40
2018-05-11T08:03:46.240Z,45.23
2018-05-11T08:06:14.300Z,45.37
2018-05-11T08:08:47.032Z,44.27
2018-05-11T08:11:22.444Z,47.77
2018-05-11T08:13:55.208Z,44.63
2018-05-11T08:16:27.948Z,46.30
2018-05-11T08:18:59.112Z,44.87
2018-05-11T08:21:35.737Z,47.20
2018-05-11T08:24:11.332Z,48.10
2018-05-11T08:26:46.204Z,45.50
2018-05-11T08:29:21.632Z,44.00
2018-05-11T08:31:50.568Z,46.70
2018-05-11T08:34:23.573Z,47.20
2018-05-11T08:36:53.492Z,45.20
2018-05-11T08:39:25.169Z,46.50
2018-05-11T08:42:11.606Z,46.87
2018-05-11T08:44:42.981Z,45.83
2018-05-11T08:47:12.898Z,44.63
2018-05-11T08:49:40.921Z,44.87
2018-05-11T08:52:12.941Z,45.00
2018-05-11T08:54:54.041Z,47.80
2018-05-11T08:57:22.827Z,43.47
2018-05-11T08:59:51.601Z,46.40
2018-05-11T09:02:19.629Z,43.93
2018-05-11T09:04:49.566Z,43.40
2018-05-11T09:07:23.645Z,40.83
2018-05-11T09:10:05.381Z,43.93
2018-05-11T09:12:33.405Z,40.40
2018-05-11T09:15:01.430Z,40.47
2018-05-11T09:17:31.342Z,41.13
2018-05-11T09:19:59.369Z,36.03
2018-05-11T09:22:31.145Z,37.53
2018-05-11T09:24:59.188Z,39.07
2018-05-11T09:27:27.201Z,36.70
2018-05-11T09:29:55.222Z,38.10
2018-05-11T09:32:23.245Z,35.50
2018-05-11T09:34:52.162Z,39.10
2018-05-11T09:37:22.097Z,36.37
2018-05-11T09:39:50.208Z,37.10
2018-05-11T09:42:19.013Z,36.07
2018-05-11T09:45:02.641Z,35.37
2018-05-11T09:47:30.672Z,34.27
2018-05-11T09:50:00.085Z,34.10
2018-05-11T09:52:28.106Z,37.13
2018-05-11T09:54:56.838Z,35.67
2018-05-11T09:57:30.621Z,35.90
2018-05-11T10:00:03.482Z,36.10
2018-05-11T10:02:35.149Z,37.33
2018-05-11T10:05:05.117Z,36.90
2018-05-11T10:07:33.145Z,37.13
2018-05-11T10:10:01.169Z,41.47
2018-05-11T10:12:29.190Z,34.87
2018-05-11T10:15:00.734Z,33.20
2018-05-11T10:17:30.688Z,36.60
2018-05-11T10:19:59.668Z,32.97
2018-05-11T10:22:35.304Z,32.60
2018-05-11T10:25:07.492Z,31.17
2018-05-11T10:27:39.121Z,32.20
2018-05-11T10:30:09.032Z,31.33
2018-05-11T10:32:38.968Z,30.17
2018-05-11T10:35:14.560Z,31.40
2018-05-11T10:37:43.516Z,29.30
2018-05-11T10:40:12.425Z,29.87
2018-05-11T10:42:44.001Z,28.73
2018-05-11T10:45:12.020Z,29.30
2018-05-11T10:47:40.937Z,27.73
2018-05-11T10:50:08.961Z,25.70
2018-05-11T10:52:36.992Z,25.70
2018-05-11T10:55:17.580Z,27.80
2018-05-11T10:57:45.592Z,26.17
2018-05-11T11:00:18.809Z,24.03
2018-05-11T11:02:46.824Z,25.63
2018-05-11T11:05:14.840Z,25.03
2018-05-11T11:07:45.873Z,25.07
2018-05-11T11:10:17.516Z,24.93
2018-05-11T11:12:50.326Z,25.77
2018-05-11T11:15:19.280Z,26.57
2018-05-11T11:17:51.676Z,26.53
2018-05-11T11:20:25.972Z,23.63
2018-05-11T11:22:59.292Z,25.43
2018-05-11T11:25:27.304Z,24.77
2018-05-11T11:27:55.316Z,25.60
2018-05-11T11:30:26.352Z,25.50
2018-05-11T11:32:55.344Z,24.00
2018-05-11T11:35:24.768Z,25.53
2018-05-11T11:37:54.668Z,24.90
2018-05-11T11:40:23.660Z,22.20
2018-05-11T11:42:52.644Z,24.20
2018-05-11T11:45:26.244Z,22.83
2018-05-11T11:47:54.304Z,22.40
2018-05-11T11:50:25.936Z,21.13
2018-05-11T11:52:53.960Z,23.10
2018-05-11T11:55:21.992Z,22.80
2018-05-11T11:57:50.016Z,23.57
2018-05-11T12:00:18.092Z,23.07
2018-05-11T12:02:46.140Z,23.37
2018-05-11T12:05:14.165Z,22.33
2018-05-11T12:07:42.196Z,20.90
2018-05-11T12:10:10.220Z,21.37
2018-05-11T12:12:41.492Z,21.13
2018-05-11T12:15:11.252Z,21.60
2018-05-11T12:17:39.376Z,20.80
2018-05-11T12:20:08.364Z,19.50
2018-05-11T12:22:37.344Z,21.00
2018-05-11T12:25:05.396Z,18.33
2018-05-11T12:27:35.120Z,17.90
2018-05-11T12:30:04.155Z,15.33
2018-05-11T12:32:33.940Z,16.67
2018-05-11T12:35:05.593Z,18.10
2018-05-11T12:37:34.568Z,17.40
2018-05-11T12:40:04.808Z,18.40
2018-05-11T12:42:33.888Z,15.90
2018-05-11T12:45:05.147Z,17.33
2018-05-11T12:47:40.479Z,16.27
2018-05-11T12:50:16.352Z,18.30
2018-05-11T12:52:50.285Z,16.70
2018-05-11T12:55:24.643Z,17.67
2018-05-11T12:57:52.811Z,15.60
2018-05-11T13:00:21.667Z,17.70
2018-05-11T13:20:44.010Z,12.77
2018-05-11T13:23:13.204Z,12.50
2018-05-11T13:25:45.651Z,11.97
2018-05-11T13:28:18.183Z,13.03
2018-05-11T13:30:46.229Z,12.93
2018-05-11T13:33:15.008Z,12.40
2018-05-11T13:35:56.739Z,14.00
2018-05-11T13:38:24.784Z,13.00
2018-05-11T13:40:57.440Z,12.60
2018-05-11T13:43:26.360Z,10.73
2018-05-11T13:46:04.952Z,12.50
2018-05-11T13:48:37.907Z,12.83
2018-05-11T13:51:10.609Z,13.40
2018-05-11T13:53:49.014Z,13.03
2018-05-11T13:56:19.958Z,11.97
2018-05-11T13:58:53.609Z,11.67
2018-05-11T14:01:21.626Z,12.43
2018-05-11T14:03:49.669Z,11.20
2018-05-11T14:06:17.687Z,11.00
2018-05-11T14:08:47.360Z,10.60
2018-05-11T14:11:18.499Z,11.33
2018-05-11T14:13:46.527Z,11.47
2018-05-11T14:16:14.592Z,11.83
2018-05-11T14:18:47.832Z,12.00
2018-05-11T14:21:15.859Z,12.07
2018-05-11T14:23:43.871Z,11.97
2018-05-11T14:26:11.899Z,10.73
2018-05-11T14:28:40.795Z,9.77
2018-05-11T14:31:08.819Z,11.07
2018-05-11T14:33:37.756Z,11.40
2018-05-11T14:36:06.683Z,10.73
2018-05-11T14:38:36.492Z,11.50
2018-05-11T14:41:08.659Z,11.83
2018-05-11T14:43:37.568Z,11.50
2018-05-11T14:46:09.223Z,10.57
2018-05-11T14:48:39.031Z,11.10
2018-05-11T14:51:07.944Z,11.17
2018-05-11T14:53:40.799Z,12.47
2018-05-11T14:56:13.675Z,11.50
2018-05-11T14:58:42.605Z,12.23
2018-05-11T15:01:13.294Z,10.93
2018-05-11T15:03:42.301Z,11.90
2018-05-11T15:06:20.455Z,11.83
2018-05-11T15:09:01.209Z,12.20
2018-05-11T15:11:30.001Z,13.13
2018-05-11T15:14:06.112Z,11.50
2018-05-11T15:16:34.116Z,11.87
2018-05-11T15:19:02.900Z,11.00
2018-05-11T15:21:31.695Z,11.20
2018-05-11T15:24:00.475Z,10.33
2018-05-11T15:26:35.039Z,10.20
2018-05-11T15:29:03.047Z,10.30
2018-05-11T15:31:35.119Z,10.43
2018-05-11T15:34:04.094Z,9.57
2018-05-11T15:36:32.119Z,10.10
2018-05-11T15:39:01.039Z,10.67
2018-05-11T15:41:29.051Z,10.53
2018-05-11T15:43:58.953Z,9.27
2018-05-11T15:46:31.582Z,11.23
2018-05-11T15:48:59.591Z,9.20
2018-05-11T15:51:28.503Z,9.83
2018-05-11T15:53:57.287Z,9.03
2018-05-11T15:56:25.302Z,9.17
2018-05-11T15:58:58.519Z,7.87
2018-05-11T16:01:40.698Z,9.27
2018-05-11T16:04:08.722Z,9.10
2018-05-11T16:06:38.716Z,8.30
2018-05-11T16:09:06.747Z,8.90
2018-05-11T16:11:44.750Z,8.83
2018-05-11T16:14:20.519Z,8.53
2018-05-11T16:16:50.422Z,8.27
2018-05-11T16:19:18.483Z,8.40
2018-05-11T16:21:52.254Z,8.20
2018-05-11T16:24:24.090Z,7.70
2018-05-11T16:26:52.106Z,10.30
2018-05-11T16:29:26.478Z,9.50
2018-05-11T16:31:59.519Z,8.73
2018-05-11T16:34:29.474Z,8.43
2018-05-11T16:37:03.871Z,8.80
2018-05-11T16:39:49.421Z,10.33
2018-05-11T16:42:18.350Z,9.57
2018-05-11T16:44:47.258Z,8.33
2018-05-11T16:47:17.266Z,8.07
2018-05-11T16:49:53.174Z,8.37
2018-05-11T16:52:21.193Z,8.93
2018-05-11T16:54:49.214Z,8.70
2018-05-11T16:57:19.178Z,8.17
2018-05-11T16:59:48.091Z,7.13
2018-05-11T17:02:18.000Z,7.10
2018-05-11T17:04:46.938Z,7.60
2018-05-11T17:07:16.683Z,8.20
2018-05-11T17:09:51.194Z,8.40
2018-05-11T17:12:20.162Z,6.50
2018-05-11T17:14:48.170Z,7.30
2018-05-11T17:17:19.526Z,8.10
2018-05-11T17:20:00.933Z,7.93
2018-05-11T17:22:40.176Z,6.63
2018-05-11T17:25:08.102Z,7.00
2018-05-11T17:27:41.080Z,8.57
2018-05-11T17:30:09.086Z,7.60
2018-05-11T17:32:45.193Z,7.73
2018-05-11T17:35:13.206Z,7.63
2018-05-11T17:37:43.886Z,7.57
2018-05-11T17:40:11.914Z,7.90
2018-05-11T17:42:42.618Z,8.20
2018-05-11T17:45:14.274Z,7.77
2018-05-11T17:47:48.011Z,7.00
2018-05-11T17:50:20.758Z,7.93
2018-05-11T17:52:53.740Z,6.90
2018-05-11T17:55:21.758Z,7.53
2018-05-11T17:57:55.182Z,6.77
2018-05-11T18:00:29.766Z,7.23
2018-05-11T18:02:59.430Z,7.90
2018-05-11T18:05:32.838Z,8.37
2018-05-11T18:08:02.762Z,9.13
2018-05-11T18:10:31.686Z,7.93
2018-05-11T18:13:00.618Z,8.40
2018-05-11T18:15:28.634Z,8.83
2018-05-11T18:17:59.314Z,8.90
2018-05-11T18:20:35.455Z,9.17
2018-05-11T18:23:04.366Z,8.47
2018-05-11T18:25:35.935Z,8.40
2018-05-11T18:28:09.576Z,9.27
2018-05-11T18:30:38.354Z,8.57
2018-05-11T18:33:11.226Z,7.83
2018-05-11T18:35:46.734Z,7.90
2018-05-11T18:38:15.734Z,8.37
2018-05-11T18:40:47.703Z,8.40
2018-05-11T18:43:16.722Z,9.43
2018-05-11T18:45:50.338Z,8.60
2018-05-11T18:48:19.122Z,8.37
2018-05-11T18:50:49.030Z,8.30
2018-05-11T18:53:18.006Z,8.80
2018-05-11T18:55:51.717Z,8.60
2018-05-11T18:58:21.625Z,7.57
2018-05-11T19:00:49.642Z,9.40
2018-05-11T19:03:17.669Z,8.30
2018-05-11T19:05:45.684Z,10.50
2018-05-11T19:08:15.644Z,10.50
2018-05-11T19:10:43.650Z,10.10
2018-05-11T19:13:12.570Z,9.50
2018-05-11T19:15:45.790Z,9.50
2018-05-11T19:18:13.826Z,9.90
2018-05-11T19:20:41.837Z,11.13
2018-05-11T19:23:10.865Z,11.00
2018-05-11T19:25:42.070Z,11.10
2018-05-11T19:28:12.009Z,9.53
2018-05-11T19:30:40.850Z,10.77
2018-05-11T19:33:08.873Z,11.17
2018-05-11T19:35:41.978Z,11.73
2018-05-11T19:38:10.002Z,10.60
2018-05-11T19:40:38.918Z,12.20
2018-05-11T19:43:07.705Z,10.90
2018-05-11T19:45:43.005Z,11.40
2018-05-11T19:48:15.942Z,12.60
2018-05-11T19:50:45.949Z,11.50
2018-05-11T19:53:14.729Z,12.60
2018-05-11T19:55:43.546Z,12.43
2018-05-11T19:58:11.578Z,12.87
2018-05-11T20:00:40.498Z,13.90
2018-05-11T20:03:09.506Z,11.53
2018-05-11T20:05:39.514Z,12.10
2018-05-11T20:08:07.677Z,14.30
2018-05-11T20:10:41.541Z,11.50
2018-05-11T20:13:09.615Z,12.47
2018-05-11T20:15:42.298Z,12.33
2018-05-11T20:18:13.441Z,13.53
2018-05-11T20:20:47.834Z,14.57
2018-05-11T20:23:21.732Z,14.57
2018-05-11T20:25:49.782Z,15.00
2018-05-11T20:28:21.795Z,14.80
2018-05-11T20:30:51.878Z,14.30
2018-05-11T20:33:22.998Z,14.47
2018-05-11T20:35:53.969Z,14.90
2018-05-11T20:38:24.729Z,13.63
2018-05-11T20:40:58.821Z,15.63
2018-05-11T20:43:27.118Z,15.17
2018-05-11T20:45:58.194Z,14.70
2018-05-11T20:48:30.213Z,16.10
2018-05-11T20:50:59.293Z,15.90
2018-05-11T20:53:27.454Z,14.07
2018-05-11T20:55:56.381Z,15.47
2018-05-11T20:58:25.293Z,16.00
2018-05-11T21:00:53.301Z,14.83
2018-05-11T21:03:21.782Z,15.90
2018-05-11T21:05:54.036Z,15.80
2018-05-11T21:08:24.149Z,15.43
2018-05-11T21:11:00.657Z,14.30
2018-05-11T21:13:35.853Z,13.30
2018-05-11T21:16:05.905Z,14.80
2018-05-11T21:18:39.269Z,17.00
2018-05-11T21:21:13.149Z,17.53
2018-05-11T21:23:49.707Z,17.10
2018-05-11T21:26:17.881Z,17.73
2018-05-11T21:28:49.073Z,18.13
2018-05-11T21:31:19.042Z,18.00
2018-05-11T21:33:54.250Z,18.77
2018-05-11T21:36:22.665Z,19.27
2018-05-11T21:38:53.207Z,17.10
2018-05-11T21:41:22.909Z,17.37
2018-05-11T21:43:53.645Z,16.13
2018-05-11T21:46:22.655Z,15.17
2018-05-11T21:48:55.465Z,12.00
2018-05-11T21:51:26.749Z,13.27
2018-05-11T21:53:57.473Z,13.37
2018-05-11T21:56:26.433Z,14.27
2018-05-11T21:58:54.466Z,15.53
2018-05-11T22:01:23.717Z,14.87
2018-05-11T22:03:53.329Z,14.83
2018-05-11T22:06:22.481Z,16.87
2018-05-11T22:09:03.657Z,16.60
2018-05-11T22:11:33.681Z,17.20
2018-05-11T22:14:05.153Z,17.80
2018-05-11T22:16:41.301Z,17.27
2018-05-11T22:19:16.966Z,16.37
2018-05-11T22:21:50.236Z,18.97
2018-05-11T22:24:19.188Z,18.90
2018-05-11T22:26:47.213Z,17.70
2018-05-11T22:29:23.277Z,17.17
2018-05-11T22:31:58.144Z,18.47
2018-05-11T22:34:26.980Z,17.30
2018-05-11T22:37:00.065Z,21.37
2018-05-11T22:39:28.137Z,19.70
2018-05-11T22:41:58.676Z,19.43
2018-05-11T22:47:23.424Z,21.03
2018-05-11T22:49:52.348Z,21.67
2018-05-11T22:52:23.052Z,21.57
2018-05-11T22:54:53.009Z,22.00
2018-05-11T22:57:21.940Z,23.60
2018-05-11T23:00:14.356Z,24.70
2018-05-11T23:02:48.177Z,27.23
2018-05-11T23:05:21.464Z,25.70
2018-05-11T23:08:09.308Z,27.60
2018-05-11T23:10:37.348Z,27.17
2018-05-11T23:13:11.492Z,27.23
2018-05-11T23:15:51.853Z,25.60
2018-05-11T23:18:20.664Z,25.53
2018-05-11T23:20:50.699Z,25.03
2018-05-11T23:23:21.504Z,23.57
2018-05-11T23:25:56.175Z,24.40
2018-05-11T23:28:25.124Z,22.97
2018-05-11T23:30:53.140Z,24.20
2018-05-11T23:33:22.064Z,22.70
2018-05-11T23:35:51.984Z,22.40
2018-05-11T23:38:20.992Z,24.10
2018-05-11T23:40:59.316Z,24.33
2018-05-11T23:43:28.281Z,26.07
2018-05-11T23:46:00.432Z,26.47
2018-05-11T23:48:28.458Z,25.47
2018-05-11T23:51:01.784Z,24.57
2018-05-11T23:53:29.872Z,27.00
2018-05-11T23:55:59.160Z,25.50
2018-05-11T23:58:32.183Z,26.50
